Alges — CSPH — position and weather

sailwx.info

Track history (hours):
 
Tides and Currents Weather Stations Pressure Air Temp Water Temp Dewpoint Dewpoint Depression Visibility Wind Speed Wind Dir Waves Ship Positions

Alges

Last reported at 2014-Sep-17 06:26 UTC. Time now 2014-Sep-17 11:35 UTC.
Position N 38°41' W 009°09'.

Length 45 m; draft 24.8 m.

Type: Passenger vessel. MMSI: 263700008.

Date/timePositionNaut miles runAvg speedWind from/ knotsBaromVisibWave heightAir tempDewpointWater temp
2014-Sep-17 06:26N 38°41' W 009°09'0 0.0
2014-Sep-16 18:11N 38°41' W 009°09'6 9.8
2014-Sep-16 17:34N 38°42' W 009°01'1 0.5
2014-Sep-16 16:33N 38°42' W 009°00'0 0.0
2014-Sep-16 15:33N 38°42' W 009°00'0 0.0
2014-Sep-16 10:08N 38°42' W 009°00'711.5
2014-Sep-16 09:34N 38°41' W 009°09'7 6.6
2014-Sep-16 08:33N 38°42' W 009°00'0 0.2
2014-Sep-16 07:34N 38°42' W 009°01'0 0.1
2014-Sep-16 06:33N 38°42' W 009°00'0 0.0
2014-Sep-15 19:03N 38°42' W 009°00'611.2
2014-Sep-15 18:34N 38°42' W 009°08'0 0.1
2014-Sep-15 17:33N 38°42' W 009°07'0 0.3
2014-Sep-15 16:33N 38°42' W 009°08'0 0.0
2014-Sep-15 15:34N 38°42' W 009°08'0 0.2
2014-Sep-15 14:33N 38°42' W 009°08'6 5.7
2014-Sep-15 13:34N 38°42' W 009°00'1 0.6
2014-Sep-15 12:33N 38°42' W 009°01'5 5.3
2014-Sep-15 11:33N 38°42' W 009°08'6 5.7
2014-Sep-15 10:33N 38°42' W 009°00'1 0.5
2014-Sep-15 09:33N 38°42' W 009°01'0 0.4
2014-Sep-15 08:33N 38°42' W 009°01'0 0.1
2014-Sep-15 07:33N 38°42' W 009°01'6 6.4
2014-Sep-15 06:33N 38°41' W 009°09'0 0.0
2014-Sep-15 05:33N 38°41' W 009°09'2 0.1
2014-Sep-14 07:34N 38°42' W 009°08'6 5.9
2014-Sep-14 06:33N 38°42' W 009°00'0 0.0
2014-Sep-13 21:27N 38°42' W 009°00'6 6.6
2014-Sep-13 20:33N 38°42' W 009°08'0 0.4
2014-Sep-13 19:34N 38°42' W 009°07'0 0.3
2014-Sep-13 18:34N 38°42' W 009°07'5 5.4
2014-Sep-13 17:33N 38°42' W 009°00'0 0.0
2014-Sep-13 16:34N 38°42' W 009°00'6 5.6
2014-Sep-13 15:33N 38°42' W 009°08'6 5.6
2014-Sep-13 14:33N 38°42' W 009°00'0 0.1
2014-Sep-13 13:34N 38°42' W 009°01'0 0.1
2014-Sep-13 12:28N 38°42' W 009°00'0 0.2
2014-Sep-13 11:34N 38°42' W 009°01'0 0.2
2014-Sep-13 10:34N 38°42' W 009°00'0 0.3
2014-Sep-13 09:33N 38°42' W 009°01'0 0.3
2014-Sep-13 08:34N 38°42' W 009°00'0 0.3
2014-Sep-13 07:34N 38°42' W 009°01'0 0.0
2014-Sep-13 06:34N 38°42' W 009°01'0 0.0
2014-Sep-13 05:33N 38°42' W 009°01'0 0.1
2014-Sep-12 22:34N 38°42' W 009°01'0 0.0
2014-Sep-12 21:34N 38°42' W 009°01'0 0.2
2014-Sep-12 20:34N 38°41' W 009°01'0 0.4
2014-Sep-12 19:34N 38°42' W 009°01'0 0.3
2014-Sep-12 18:34N 38°42' W 009°01'0 0.0
2014-Sep-12 17:33N 38°42' W 009°01'0 0.0
2014-Sep-12 16:34N 38°42' W 009°01'0 0.1
2014-Sep-12 15:34N 38°42' W 009°01'1 0.2
2014-Sep-12 11:16N 38°42' W 009°00'7 9.3
2014-Sep-12 10:33N 38°41' W 009°09'0 0.0
2014-Sep-12 09:34N 38°41' W 009°09'1 1.1
2014-Sep-12 08:33N 38°42' W 009°09'3 3.5
2014-Sep-12 07:34N 38°40' W 009°06'1 1.2
2014-Sep-12 06:34N 38°40' W 009°07'2 2.4
2014-Sep-12 05:33N 38°42' W 009°09'4 4.1
2014-Sep-12 04:33N 38°39' W 009°06'0 0.0
2014-Sep-11 22:33N 38°39' W 009°06'0 0.3
2014-Sep-11 21:33N 38°39' W 009°06'0 0.1
2014-Sep-11 20:34N 38°39' W 009°06'0 0.1
2014-Sep-11 19:33N 38°39' W 009°06'3 3.2
2014-Sep-11 18:33N 38°42' W 009°08'1 0.5
2014-Sep-11 17:33N 38°42' W 009°09'1 1.0
2014-Sep-11 16:33N 38°41' W 009°09'1 1.0
2014-Sep-11 15:34N 38°41' W 009°08'1 1.0
2014-Sep-11 14:33N 38°41' W 009°09'0 0.0
2014-Sep-11 10:30N 38°41' W 009°09'3 3.4
2014-Sep-11 09:34N 38°39' W 009°06'1 0.5
2014-Sep-11 08:34N 38°39' W 009°06'4 3.6
2014-Sep-11 07:33N 38°42' W 009°09'2 2.0
2014-Sep-11 06:34N 38°41' W 009°08'2 2.2
2014-Sep-11 05:33N 38°39' W 009°06'4 0.3
2014-Sep-10 18:34N 38°42' W 009°08'0 0.5
2014-Sep-10 17:33N 38°42' W 009°09'4 3.9
2014-Sep-10 16:33N 38°39' W 009°06'0 0.2
2014-Sep-10 15:34N 38°39' W 009°06'2 0.4
2014-Sep-10 09:34N 38°40' W 009°08'2 1.9
2014-Sep-10 08:33N 38°42' W 009°09'4 3.7
2014-Sep-10 07:33N 38°39' W 009°06'2 1.8
2014-Sep-10 06:33N 38°40' W 009°08'2 2.1
2014-Sep-10 05:33N 38°42' W 009°09'4 4.1
2014-Sep-10 04:34N 38°39' W 009°06'0 0.0
2014-Sep-09 22:34N 38°39' W 009°06'0 0.2
2014-Sep-09 21:33N 38°39' W 009°06'0 0.2
2014-Sep-09 20:33N 38°39' W 009°06'0 0.2
2014-Sep-09 19:33N 38°39' W 009°06'3 3.4
2014-Sep-09 18:34N 38°42' W 009°08'0 0.5
2014-Sep-09 17:34N 38°42' W 009°09'4 3.6
2014-Sep-09 16:33N 38°39' W 009°06'1 0.5
2014-Sep-09 15:33N 38°39' W 009°06'1 0.2
2014-Sep-09 09:33N 38°40' W 009°07'3 2.8
2014-Sep-09 08:33N 38°42' W 009°09'4 3.8
2014-Sep-09 07:33N 38°39' W 009°06'1 1.3
2014-Sep-09 06:34N 38°40' W 009°07'3 2.6
2014-Sep-09 05:33N 38°42' W 009°09'1 0.1
2014-Sep-08 17:34N 38°41' W 009°09'0 0.0
2014-Sep-08 08:33N 38°41' W 009°09'0 0.0
2014-Sep-08 07:11N 38°41' W 009°09'710.6
2014-Sep-08 06:33N 38°42' W 009°00'  
Track history (hours):
 
Tides and Currents Weather Stations Pressure Air Temp Water Temp Dewpoint Dewpoint Depression Visibility Wind Speed Wind Dir Waves Ship Positions

Alges

Last reported at 2014-Sep-17 06:26 UTC. Time now 2014-Sep-17 11:35 UTC.
Position N 38°41' W 009°09'.

Length 45 m; draft 24.8 m.

Type: Passenger vessel. MMSI: 263700008.

Date/timePositionNaut miles runAvg speedWind from/ knotsBaromVisibWave heightAir tempDewpointWater temp
2014-Sep-17 06:26N 38°41' W 009°09'0 0.0
2014-Sep-16 18:11N 38°41' W 009°09'6 9.8
2014-Sep-16 17:34N 38°42' W 009°01'1 0.5
2014-Sep-16 16:33N 38°42' W 009°00'0 0.0
2014-Sep-16 15:33N 38°42' W 009°00'0 0.0
2014-Sep-16 10:08N 38°42' W 009°00'711.5
2014-Sep-16 09:34N 38°41' W 009°09'7 6.6
2014-Sep-16 08:33N 38°42' W 009°00'0 0.2
2014-Sep-16 07:34N 38°42' W 009°01'0 0.1
2014-Sep-16 06:33N 38°42' W 009°00'0 0.0
2014-Sep-15 19:03N 38°42' W 009°00'611.2
2014-Sep-15 18:34N 38°42' W 009°08'0 0.1
2014-Sep-15 17:33N 38°42' W 009°07'0 0.3
2014-Sep-15 16:33N 38°42' W 009°08'0 0.0
2014-Sep-15 15:34N 38°42' W 009°08'0 0.2
2014-Sep-15 14:33N 38°42' W 009°08'6 5.7
2014-Sep-15 13:34N 38°42' W 009°00'1 0.6
2014-Sep-15 12:33N 38°42' W 009°01'5 5.3
2014-Sep-15 11:33N 38°42' W 009°08'6 5.7
2014-Sep-15 10:33N 38°42' W 009°00'1 0.5
2014-Sep-15 09:33N 38°42' W 009°01'0 0.4
2014-Sep-15 08:33N 38°42' W 009°01'0 0.1
2014-Sep-15 07:33N 38°42' W 009°01'6 6.4
2014-Sep-15 06:33N 38°41' W 009°09'0 0.0
2014-Sep-15 05:33N 38°41' W 009°09'2 0.1
2014-Sep-14 07:34N 38°42' W 009°08'6 5.9
2014-Sep-14 06:33N 38°42' W 009°00'0 0.0
2014-Sep-13 21:27N 38°42' W 009°00'6 6.6
2014-Sep-13 20:33N 38°42' W 009°08'0 0.4
2014-Sep-13 19:34N 38°42' W 009°07'0 0.3
2014-Sep-13 18:34N 38°42' W 009°07'5 5.4
2014-Sep-13 17:33N 38°42' W 009°00'0 0.0
2014-Sep-13 16:34N 38°42' W 009°00'6 5.6
2014-Sep-13 15:33N 38°42' W 009°08'6 5.6
2014-Sep-13 14:33N 38°42' W 009°00'0 0.1
2014-Sep-13 13:34N 38°42' W 009°01'0 0.1
2014-Sep-13 12:28N 38°42' W 009°00'0 0.2
2014-Sep-13 11:34N 38°42' W 009°01'0 0.2
2014-Sep-13 10:34N 38°42' W 009°00'0 0.3
2014-Sep-13 09:33N 38°42' W 009°01'0 0.3
2014-Sep-13 08:34N 38°42' W 009°00'0 0.3
2014-Sep-13 07:34N 38°42' W 009°01'0 0.0
2014-Sep-13 06:34N 38°42' W 009°01'0 0.0
2014-Sep-13 05:33N 38°42' W 009°01'0 0.1
2014-Sep-12 22:34N 38°42' W 009°01'0 0.0
2014-Sep-12 21:34N 38°42' W 009°01'0 0.2
2014-Sep-12 20:34N 38°41' W 009°01'0 0.4
2014-Sep-12 19:34N 38°42' W 009°01'0 0.3
2014-Sep-12 18:34N 38°42' W 009°01'0 0.0
2014-Sep-12 17:33N 38°42' W 009°01'0 0.0
2014-Sep-12 16:34N 38°42' W 009°01'0 0.1
2014-Sep-12 15:34N 38°42' W 009°01'1 0.2
2014-Sep-12 11:16N 38°42' W 009°00'7 9.3
2014-Sep-12 10:33N 38°41' W 009°09'0 0.0
2014-Sep-12 09:34N 38°41' W 009°09'1 1.1
2014-Sep-12 08:33N 38°42' W 009°09'3 3.5
2014-Sep-12 07:34N 38°40' W 009°06'1 1.2
2014-Sep-12 06:34N 38°40' W 009°07'2 2.4
2014-Sep-12 05:33N 38°42' W 009°09'4 4.1
2014-Sep-12 04:33N 38°39' W 009°06'0 0.0
2014-Sep-11 22:33N 38°39' W 009°06'0 0.3
2014-Sep-11 21:33N 38°39' W 009°06'0 0.1
2014-Sep-11 20:34N 38°39' W 009°06'0 0.1
2014-Sep-11 19:33N 38°39' W 009°06'3 3.2
2014-Sep-11 18:33N 38°42' W 009°08'1 0.5
2014-Sep-11 17:33N 38°42' W 009°09'1 1.0
2014-Sep-11 16:33N 38°41' W 009°09'1 1.0
2014-Sep-11 15:34N 38°41' W 009°08'1 1.0
2014-Sep-11 14:33N 38°41' W 009°09'0 0.0
2014-Sep-11 10:30N 38°41' W 009°09'3 3.4
2014-Sep-11 09:34N 38°39' W 009°06'1 0.5
2014-Sep-11 08:34N 38°39' W 009°06'4 3.6
2014-Sep-11 07:33N 38°42' W 009°09'2 2.0
2014-Sep-11 06:34N 38°41' W 009°08'2 2.2
2014-Sep-11 05:33N 38°39' W 009°06'4 0.3
2014-Sep-10 18:34N 38°42' W 009°08'0 0.5
2014-Sep-10 17:33N 38°42' W 009°09'4 3.9
2014-Sep-10 16:33N 38°39' W 009°06'0 0.2
2014-Sep-10 15:34N 38°39' W 009°06'2 0.4
2014-Sep-10 09:34N 38°40' W 009°08'2 1.9
2014-Sep-10 08:33N 38°42' W 009°09'4 3.7
2014-Sep-10 07:33N 38°39' W 009°06'2 1.8
2014-Sep-10 06:33N 38°40' W 009°08'2 2.1
2014-Sep-10 05:33N 38°42' W 009°09'4 4.1
2014-Sep-10 04:34N 38°39' W 009°06'0 0.0
2014-Sep-09 22:34N 38°39' W 009°06'0 0.2
2014-Sep-09 21:33N 38°39' W 009°06'0 0.2
2014-Sep-09 20:33N 38°39' W 009°06'0 0.2
2014-Sep-09 19:33N 38°39' W 009°06'3 3.4
2014-Sep-09 18:34N 38°42' W 009°08'0 0.5
2014-Sep-09 17:34N 38°42' W 009°09'4 3.6
2014-Sep-09 16:33N 38°39' W 009°06'1 0.5
2014-Sep-09 15:33N 38°39' W 009°06'1 0.2
2014-Sep-09 09:33N 38°40' W 009°07'3 2.8
2014-Sep-09 08:33N 38°42' W 009°09'4 3.8
2014-Sep-09 07:33N 38°39' W 009°06'1 1.3
2014-Sep-09 06:34N 38°40' W 009°07'3 2.6
2014-Sep-09 05:33N 38°42' W 009°09'1 0.1
2014-Sep-08 17:34N 38°41' W 009°09'0 0.0
2014-Sep-08 08:33N 38°41' W 009°09'0 0.0
2014-Sep-08 07:11N 38°41' W 009°09'710.6
2014-Sep-08 06:33N 38°42' W 009°00'  

Dump ship's entire track history